sensor_id;sensor_type;location;lat;lon;timestamp;P1;durP1;ratioP1;P2;durP2;ratioP2
22557;SDS011;11445;53.816;8.902;2023-02-04T00:00:00;6.53;;;1.10;;
22557;SDS011;11445;53.816;8.902;2023-02-04T00:02:29;1.83;;;0.95;;
22557;SDS011;11445;53.816;8.902;2023-02-04T00:04:57;3.70;;;0.90;;
22557;SDS011;11445;53.816;8.902;2023-02-04T00:07:26;1.30;;;0.70;;
22557;SDS011;11445;53.816;8.902;2023-02-04T00:09:53;4.07;;;0.95;;
22557;SDS011;11445;53.816;8.902;2023-02-04T00:12:20;1.98;;;0.77;;
22557;SDS011;11445;53.816;8.902;2023-02-04T00:14:47;1.17;;;0.70;;
22557;SDS011;11445;53.816;8.902;2023-02-04T00:17:14;2.53;;;1.27;;
22557;SDS011;11445;53.816;8.902;2023-02-04T00:19:41;1.17;;;0.77;;
22557;SDS011;11445;53.816;8.902;2023-02-04T00:22:09;1.65;;;0.80;;
22557;SDS011;11445;53.816;8.902;2023-02-04T00:24:36;6.78;;;1.10;;
22557;SDS011;11445;53.816;8.902;2023-02-04T00:27:04;1.10;;;1.00;;
22557;SDS011;11445;53.816;8.902;2023-02-04T00:29:32;1.48;;;0.90;;
22557;SDS011;11445;53.816;8.902;2023-02-04T00:31:59;1.48;;;0.70;;
22557;SDS011;11445;53.816;8.902;2023-02-04T00:34:26;0.93;;;0.80;;
22557;SDS011;11445;53.816;8.902;2023-02-04T00:36:53;2.28;;;0.98;;
22557;SDS011;11445;53.816;8.902;2023-02-04T00:39:21;2.05;;;1.00;;
22557;SDS011;11445;53.816;8.902;2023-02-04T00:41:48;1.50;;;0.90;;
22557;SDS011;11445;53.816;8.902;2023-02-04T00:44:15;5.03;;;1.13;;
22557;SDS011;11445;53.816;8.902;2023-02-04T00:46:42;5.97;;;1.00;;
22557;SDS011;11445;53.816;8.902;2023-02-04T00:49:10;2.30;;;1.00;;
22557;SDS011;11445;53.816;8.902;2023-02-04T00:51:37;2.35;;;1.15;;
22557;SDS011;11445;53.816;8.902;2023-02-04T00:54:05;4.53;;;1.10;;
22557;SDS011;11445;53.816;8.902;2023-02-04T00:56:34;3.00;;;1.15;;
22557;SDS011;11445;53.816;8.902;2023-02-04T00:59:01;1.52;;;1.08;;
22557;SDS011;11445;53.816;8.902;2023-02-04T01:01:28;4.13;;;1.20;;
22557;SDS011;11445;53.816;8.902;2023-02-04T01:03:55;3.05;;;1.15;;
22557;SDS011;11445;53.816;8.902;2023-02-04T01:06:22;2.25;;;1.13;;
22557;SDS011;11445;53.816;8.902;2023-02-04T01:08:49;1.08;;;1.00;;
22557;SDS011;11445;53.816;8.902;2023-02-04T01:11:16;1.80;;;1.40;;
22557;SDS011;11445;53.816;8.902;2023-02-04T01:13:46;3.10;;;1.50;;
22557;SDS011;11445;53.816;8.902;2023-02-04T01:16:13;2.35;;;1.10;;
22557;SDS011;11445;53.816;8.902;2023-02-04T01:18:40;1.70;;;1.30;;
22557;SDS011;11445;53.816;8.902;2023-02-04T01:21:07;5.07;;;1.27;;
22557;SDS011;11445;53.816;8.902;2023-02-04T01:23:34;2.92;;;1.17;;
22557;SDS011;11445;53.816;8.902;2023-02-04T01:26:01;2.58;;;1.02;;
22557;SDS011;11445;53.816;8.902;2023-02-04T01:28:28;1.42;;;1.25;;
22557;SDS011;11445;53.816;8.902;2023-02-04T01:30:57;3.30;;;1.17;;
22557;SDS011;11445;53.816;8.902;2023-02-04T01:33:24;2.88;;;1.25;;
22557;SDS011;11445;53.816;8.902;2023-02-04T01:35:51;4.05;;;1.63;;
22557;SDS011;11445;53.816;8.902;2023-02-04T01:38:18;1.67;;;1.45;;
22557;SDS011;11445;53.816;8.902;2023-02-04T01:40:45;3.75;;;2.35;;
22557;SDS011;11445;53.816;8.902;2023-02-04T01:43:12;2.25;;;1.30;;
22557;SDS011;11445;53.816;8.902;2023-02-04T01:45:41;2.70;;;1.60;;
22557;SDS011;11445;53.816;8.902;2023-02-04T01:48:10;6.43;;;1.40;;
22557;SDS011;11445;53.816;8.902;2023-02-04T01:50:44;3.50;;;1.30;;
22557;SDS011;11445;53.816;8.902;2023-02-04T01:53:11;5.80;;;1.60;;
22557;SDS011;11445;53.816;8.902;2023-02-04T01:55:38;3.55;;;1.30;;
22557;SDS011;11445;53.816;8.902;2023-02-04T01:58:07;4.45;;;1.60;;
22557;SDS011;11445;53.816;8.902;2023-02-04T02:00:37;2.45;;;1.20;;
22557;SDS011;11445;53.816;8.902;2023-02-04T02:03:04;2.83;;;1.48;;
22557;SDS011;11445;53.816;8.902;2023-02-04T02:05:36;4.05;;;1.50;;
22557;SDS011;11445;53.816;8.902;2023-02-04T02:10:33;1.48;;;1.30;;
22557;SDS011;11445;53.816;8.902;2023-02-04T02:13:02;3.08;;;1.40;;
22557;SDS011;11445;53.816;8.902;2023-02-04T02:15:30;4.18;;;1.60;;
22557;SDS011;11445;53.816;8.902;2023-02-04T02:17:57;6.80;;;1.60;;
22557;SDS011;11445;53.816;8.902;2023-02-04T02:20:24;1.67;;;1.52;;
22557;SDS011;11445;53.816;8.902;2023-02-04T02:22:57;2.65;;;1.55;;
22557;SDS011;11445;53.816;8.902;2023-02-04T02:25:29;2.60;;;1.50;;
22557;SDS011;11445;53.816;8.902;2023-02-04T02:27:56;1.58;;;1.45;;
22557;SDS011;11445;53.816;8.902;2023-02-04T02:30:25;2.85;;;1.42;;
22557;SDS011;11445;53.816;8.902;2023-02-04T02:32:53;1.45;;;1.30;;
22557;SDS011;11445;53.816;8.902;2023-02-04T02:35:21;1.90;;;1.50;;
22557;SDS011;11445;53.816;8.902;2023-02-04T02:37:48;1.60;;;1.42;;
22557;SDS011;11445;53.816;8.902;2023-02-04T02:40:15;3.30;;;1.63;;
22557;SDS011;11445;53.816;8.902;2023-02-04T02:42:44;1.65;;;1.50;;
22557;SDS011;11445;53.816;8.902;2023-02-04T02:45:18;4.85;;;1.48;;
22557;SDS011;11445;53.816;8.902;2023-02-04T02:47:47;4.30;;;1.50;;
22557;SDS011;11445;53.816;8.902;2023-02-04T02:50:15;1.88;;;1.70;;
22557;SDS011;11445;53.816;8.902;2023-02-04T02:52:46;3.25;;;1.80;;
22557;SDS011;11445;53.816;8.902;2023-02-04T02:55:13;2.80;;;1.70;;
22557;SDS011;11445;53.816;8.902;2023-02-04T02:57:45;2.60;;;1.55;;
22557;SDS011;11445;53.816;8.902;2023-02-04T03:00:13;2.70;;;1.73;;
22557;SDS011;11445;53.816;8.902;2023-02-04T03:02:42;2.40;;;1.65;;
22557;SDS011;11445;53.816;8.902;2023-02-04T03:05:10;3.47;;;1.88;;
22557;SDS011;11445;53.816;8.902;2023-02-04T03:07:38;5.57;;;2.30;;
22557;SDS011;11445;53.816;8.902;2023-02-04T03:10:05;2.03;;;1.67;;
22557;SDS011;11445;53.816;8.902;2023-02-04T03:12:33;1.55;;;1.45;;
22557;SDS011;11445;53.816;8.902;2023-02-04T03:15:02;2.25;;;1.95;;
22557;SDS011;11445;53.816;8.902;2023-02-04T03:17:30;4.53;;;1.95;;
22557;SDS011;11445;53.816;8.902;2023-02-04T03:19:58;3.28;;;2.10;;
22557;SDS011;11445;53.816;8.902;2023-02-04T03:22:25;3.28;;;1.90;;
22557;SDS011;11445;53.816;8.902;2023-02-04T03:24:52;3.97;;;2.00;;
22557;SDS011;11445;53.816;8.902;2023-02-04T03:27:19;5.57;;;2.08;;
22557;SDS011;11445;53.816;8.902;2023-02-04T03:29:46;3.72;;;2.00;;
22557;SDS011;11445;53.816;8.902;2023-02-04T03:32:15;2.80;;;2.10;;
22557;SDS011;11445;53.816;8.902;2023-02-04T03:34:42;7.47;;;2.45;;
22557;SDS011;11445;53.816;8.902;2023-02-04T03:37:09;2.80;;;2.00;;
22557;SDS011;11445;53.816;8.902;2023-02-04T03:39:37;2.60;;;2.20;;
22557;SDS011;11445;53.816;8.902;2023-02-04T03:42:04;3.72;;;2.03;;
22557;SDS011;11445;53.816;8.902;2023-02-04T03:44:31;7.18;;;2.40;;
22557;SDS011;11445;53.816;8.902;2023-02-04T03:46:58;5.05;;;2.15;;
22557;SDS011;11445;53.816;8.902;2023-02-04T03:49:26;5.13;;;2.25;;
22557;SDS011;11445;53.816;8.902;2023-02-04T03:51:53;2.30;;;1.98;;
22557;SDS011;11445;53.816;8.902;2023-02-04T03:54:20;5.35;;;2.35;;
22557;SDS011;11445;53.816;8.902;2023-02-04T03:56:47;2.20;;;2.00;;
22557;SDS011;11445;53.816;8.902;2023-02-04T03:59:14;3.95;;;2.33;;
22557;SDS011;11445;53.816;8.902;2023-02-04T04:01:41;2.40;;;2.20;;
22557;SDS011;11445;53.816;8.902;2023-02-04T04:04:08;3.47;;;2.30;;
22557;SDS011;11445;53.816;8.902;2023-02-04T04:06:37;5.82;;;2.58;;
22557;SDS011;11445;53.816;8.902;2023-02-04T04:09:04;3.33;;;2.35;;
22557;SDS011;11445;53.816;8.902;2023-02-04T04:11:31;4.07;;;2.35;;
22557;SDS011;11445;53.816;8.902;2023-02-04T04:13:58;2.50;;;2.30;;
22557;SDS011;11445;53.816;8.902;2023-02-04T04:16:25;5.72;;;2.30;;
22557;SDS011;11445;53.816;8.902;2023-02-04T04:18:52;6.40;;;2.67;;
22557;SDS011;11445;53.816;8.902;2023-02-04T04:21:19;4.85;;;2.60;;
22557;SDS011;11445;53.816;8.902;2023-02-04T04:23:47;3.63;;;2.85;;
22557;SDS011;11445;53.816;8.902;2023-02-04T04:26:14;2.65;;;2.42;;
22557;SDS011;11445;53.816;8.902;2023-02-04T04:28:42;4.40;;;2.70;;
22557;SDS011;11445;53.816;8.902;2023-02-04T04:31:09;3.03;;;2.40;;
22557;SDS011;11445;53.816;8.902;2023-02-04T04:33:36;3.80;;;2.70;;
22557;SDS011;11445;53.816;8.902;2023-02-04T04:36:04;3.75;;;2.38;;
22557;SDS011;11445;53.816;8.902;2023-02-04T04:38:31;3.47;;;2.40;;
22557;SDS011;11445;53.816;8.902;2023-02-04T04:40:59;3.70;;;2.50;;
22557;SDS011;11445;53.816;8.902;2023-02-04T04:43:26;3.17;;;2.42;;
22557;SDS011;11445;53.816;8.902;2023-02-04T04:45:53;6.25;;;2.65;;
22557;SDS011;11445;53.816;8.902;2023-02-04T04:48:20;2.78;;;2.20;;
22557;SDS011;11445;53.816;8.902;2023-02-04T04:50:49;6.18;;;2.40;;
22557;SDS011;11445;53.816;8.902;2023-02-04T04:53:16;3.72;;;2.70;;
22557;SDS011;11445;53.816;8.902;2023-02-04T04:55:43;3.00;;;2.38;;
22557;SDS011;11445;53.816;8.902;2023-02-04T04:58:11;3.75;;;2.60;;
22557;SDS011;11445;53.816;8.902;2023-02-04T05:00:38;3.75;;;2.33;;
22557;SDS011;11445;53.816;8.902;2023-02-04T05:03:05;3.25;;;2.28;;
22557;SDS011;11445;53.816;8.902;2023-02-04T05:05:32;2.83;;;2.30;;
22557;SDS011;11445;53.816;8.902;2023-02-04T05:08:04;4.10;;;2.63;;
22557;SDS011;11445;53.816;8.902;2023-02-04T05:10:31;3.03;;;2.20;;
22557;SDS011;11445;53.816;8.902;2023-02-04T05:12:58;3.25;;;2.70;;
22557;SDS011;11445;53.816;8.902;2023-02-04T05:15:27;5.25;;;2.90;;
22557;SDS011;11445;53.816;8.902;2023-02-04T05:17:54;2.70;;;2.45;;
22557;SDS011;11445;53.816;8.902;2023-02-04T05:20:22;4.82;;;2.85;;
22557;SDS011;11445;53.816;8.902;2023-02-04T05:22:49;2.40;;;2.20;;
22557;SDS011;11445;53.816;8.902;2023-02-04T05:25:16;3.00;;;2.50;;
22557;SDS011;11445;53.816;8.902;2023-02-04T05:27:43;3.58;;;2.50;;
22557;SDS011;11445;53.816;8.902;2023-02-04T05:30:11;6.50;;;2.90;;
22557;SDS011;11445;53.816;8.902;2023-02-04T05:32:40;3.30;;;2.90;;
22557;SDS011;11445;53.816;8.902;2023-02-04T05:35:07;3.03;;;2.60;;
22557;SDS011;11445;53.816;8.902;2023-02-04T05:37:34;4.97;;;2.53;;
22557;SDS011;11445;53.816;8.902;2023-02-04T05:40:01;5.80;;;3.05;;
22557;SDS011;11445;53.816;8.902;2023-02-04T05:42:29;6.50;;;2.47;;
22557;SDS011;11445;53.816;8.902;2023-02-04T05:44:56;3.53;;;2.65;;
22557;SDS011;11445;53.816;8.902;2023-02-04T05:47:23;6.47;;;2.40;;
22557;SDS011;11445;53.816;8.902;2023-02-04T05:49:51;3.90;;;2.70;;
22557;SDS011;11445;53.816;8.902;2023-02-04T05:52:18;4.05;;;2.70;;
22557;SDS011;11445;53.816;8.902;2023-02-04T05:54:45;3.25;;;2.75;;
22557;SDS011;11445;53.816;8.902;2023-02-04T05:57:12;5.40;;;2.88;;
22557;SDS011;11445;53.816;8.902;2023-02-04T05:59:39;3.35;;;2.50;;
22557;SDS011;11445;53.816;8.902;2023-02-04T06:02:06;4.03;;;2.88;;
22557;SDS011;11445;53.816;8.902;2023-02-04T06:04:33;2.75;;;2.55;;
22557;SDS011;11445;53.816;8.902;2023-02-04T06:07:02;5.15;;;2.67;;
22557;SDS011;11445;53.816;8.902;2023-02-04T06:09:29;2.70;;;2.47;;
22557;SDS011;11445;53.816;8.902;2023-02-04T06:11:56;3.58;;;2.60;;
22557;SDS011;11445;53.816;8.902;2023-02-04T06:14:22;3.15;;;2.67;;
22557;SDS011;11445;53.816;8.902;2023-02-04T06:16:50;3.13;;;2.50;;
22557;SDS011;11445;53.816;8.902;2023-02-04T06:19:17;6.28;;;2.47;;
22557;SDS011;11445;53.816;8.902;2023-02-04T06:21:44;3.03;;;2.60;;
22557;SDS011;11445;53.816;8.902;2023-02-04T06:24:12;5.88;;;2.50;;
22557;SDS011;11445;53.816;8.902;2023-02-04T06:26:39;6.90;;;2.63;;
22557;SDS011;11445;53.816;8.902;2023-02-04T06:29:06;4.18;;;3.03;;
22557;SDS011;11445;53.816;8.902;2023-02-04T06:31:33;3.78;;;2.50;;
22557;SDS011;11445;53.816;8.902;2023-02-04T06:34:02;3.97;;;2.55;;
22557;SDS011;11445;53.816;8.902;2023-02-04T06:36:29;4.63;;;2.78;;
22557;SDS011;11445;53.816;8.902;2023-02-04T06:38:57;3.85;;;2.90;;
22557;SDS011;11445;53.816;8.902;2023-02-04T06:41:25;5.40;;;2.65;;
22557;SDS011;11445;53.816;8.902;2023-02-04T06:43:52;4.13;;;2.83;;
22557;SDS011;11445;53.816;8.902;2023-02-04T06:46:19;6.10;;;2.67;;
22557;SDS011;11445;53.816;8.902;2023-02-04T06:48:46;3.45;;;2.70;;
22557;SDS011;11445;53.816;8.902;2023-02-04T06:51:13;3.05;;;2.47;;
22557;SDS011;11445;53.816;8.902;2023-02-04T06:53:40;2.83;;;2.47;;
22557;SDS011;11445;53.816;8.902;2023-02-04T06:56:09;5.20;;;2.95;;
22557;SDS011;11445;53.816;8.902;2023-02-04T06:58:38;3.72;;;2.67;;
22557;SDS011;11445;53.816;8.902;2023-02-04T07:01:05;3.70;;;2.70;;
22557;SDS011;11445;53.816;8.902;2023-02-04T07:03:32;3.85;;;2.65;;
22557;SDS011;11445;53.816;8.902;2023-02-04T07:05:59;6.25;;;2.75;;
22557;SDS011;11445;53.816;8.902;2023-02-04T07:08:26;4.03;;;2.47;;
22557;SDS011;11445;53.816;8.902;2023-02-04T07:10:53;3.42;;;2.50;;
22557;SDS011;11445;53.816;8.902;2023-02-04T07:13:20;5.60;;;2.75;;
22557;SDS011;11445;53.816;8.902;2023-02-04T07:15:48;3.30;;;2.92;;
22557;SDS011;11445;53.816;8.902;2023-02-04T07:18:16;5.55;;;3.15;;
22557;SDS011;11445;53.816;8.902;2023-02-04T07:20:44;8.27;;;3.90;;
22557;SDS011;11445;53.816;8.902;2023-02-04T07:23:11;4.78;;;3.85;;
22557;SDS011;11445;53.816;8.902;2023-02-04T07:25:38;9.32;;;4.38;;
22557;SDS011;11445;53.816;8.902;2023-02-04T07:28:05;5.20;;;3.85;;
22557;SDS011;11445;53.816;8.902;2023-02-04T07:30:32;4.03;;;3.05;;
22557;SDS011;11445;53.816;8.902;2023-02-04T07:33:00;6.18;;;3.65;;
22557;SDS011;11445;53.816;8.902;2023-02-04T07:35:27;6.72;;;3.63;;
22557;SDS011;11445;53.816;8.902;2023-02-04T07:37:54;7.43;;;4.00;;
22557;SDS011;11445;53.816;8.902;2023-02-04T07:40:21;6.85;;;3.80;;
22557;SDS011;11445;53.816;8.902;2023-02-04T07:42:48;4.95;;;3.58;;
22557;SDS011;11445;53.816;8.902;2023-02-04T07:45:15;5.65;;;3.35;;
22557;SDS011;11445;53.816;8.902;2023-02-04T07:47:42;7.75;;;3.90;;
22557;SDS011;11445;53.816;8.902;2023-02-04T07:50:11;4.90;;;3.30;;
22557;SDS011;11445;53.816;8.902;2023-02-04T07:52:38;4.88;;;3.67;;
22557;SDS011;11445;53.816;8.902;2023-02-04T07:55:05;7.45;;;3.72;;
22557;SDS011;11445;53.816;8.902;2023-02-04T07:57:33;4.20;;;3.47;;
22557;SDS011;11445;53.816;8.902;2023-02-04T08:00:00;3.92;;;3.03;;
22557;SDS011;11445;53.816;8.902;2023-02-04T08:02:28;4.15;;;3.50;;
22557;SDS011;11445;53.816;8.902;2023-02-04T08:04:55;4.22;;;3.33;;
22557;SDS011;11445;53.816;8.902;2023-02-04T08:07:23;6.07;;;3.80;;
22557;SDS011;11445;53.816;8.902;2023-02-04T08:09:50;4.85;;;3.70;;
22557;SDS011;11445;53.816;8.902;2023-02-04T08:12:17;3.85;;;3.45;;
22557;SDS011;11445;53.816;8.902;2023-02-04T08:14:44;6.43;;;3.67;;
22557;SDS011;11445;53.816;8.902;2023-02-04T08:17:11;7.05;;;4.10;;
22557;SDS011;11445;53.816;8.902;2023-02-04T08:19:38;6.68;;;4.03;;
22557;SDS011;11445;53.816;8.902;2023-02-04T08:22:05;5.13;;;3.78;;
22557;SDS011;11445;53.816;8.902;2023-02-04T08:24:34;6.30;;;4.03;;
22557;SDS011;11445;53.816;8.902;2023-02-04T08:27:01;6.10;;;4.05;;
22557;SDS011;11445;53.816;8.902;2023-02-04T08:29:28;7.65;;;4.57;;
22557;SDS011;11445;53.816;8.902;2023-02-04T08:31:55;9.68;;;4.43;;
22557;SDS011;11445;53.816;8.902;2023-02-04T08:34:21;8.60;;;4.45;;
22557;SDS011;11445;53.816;8.902;2023-02-04T08:36:48;10.95;;;4.93;;
22557;SDS011;11445;53.816;8.902;2023-02-04T08:39:15;6.43;;;4.35;;
22557;SDS011;11445;53.816;8.902;2023-02-04T08:41:44;6.07;;;4.28;;
22557;SDS011;11445;53.816;8.902;2023-02-04T08:44:12;6.20;;;4.20;;
22557;SDS011;11445;53.816;8.902;2023-02-04T08:46:39;7.38;;;4.93;;
22557;SDS011;11445;53.816;8.902;2023-02-04T08:49:06;6.72;;;5.13;;
22557;SDS011;11445;53.816;8.902;2023-02-04T08:51:33;11.50;;;6.68;;
22557;SDS011;11445;53.816;8.902;2023-02-04T08:53:59;12.25;;;5.75;;
22557;SDS011;11445;53.816;8.902;2023-02-04T08:56:26;10.05;;;4.93;;
22557;SDS011;11445;53.816;8.902;2023-02-04T08:58:56;9.02;;;5.50;;
22557;SDS011;11445;53.816;8.902;2023-02-04T09:01:23;6.45;;;4.38;;
22557;SDS011;11445;53.816;8.902;2023-02-04T09:03:50;8.68;;;4.13;;
22557;SDS011;11445;53.816;8.902;2023-02-04T09:06:17;10.52;;;4.55;;
22557;SDS011;11445;53.816;8.902;2023-02-04T09:08:44;6.35;;;4.60;;
22557;SDS011;11445;53.816;8.902;2023-02-04T09:11:11;7.88;;;4.80;;
22557;SDS011;11445;53.816;8.902;2023-02-04T09:13:39;12.77;;;7.93;;
22557;SDS011;11445;53.816;8.902;2023-02-04T09:16:07;10.07;;;5.13;;
22557;SDS011;11445;53.816;8.902;2023-02-04T09:18:34;7.55;;;4.30;;
22557;SDS011;11445;53.816;8.902;2023-02-04T09:21:01;7.38;;;4.20;;
22557;SDS011;11445;53.816;8.902;2023-02-04T09:23:29;5.18;;;4.18;;
22557;SDS011;11445;53.816;8.902;2023-02-04T09:25:56;5.15;;;3.80;;
22557;SDS011;11445;53.816;8.902;2023-02-04T09:28:23;8.30;;;4.55;;
22557;SDS011;11445;53.816;8.902;2023-02-04T09:30:50;7.68;;;4.60;;
22557;SDS011;11445;53.816;8.902;2023-02-04T09:33:18;9.02;;;4.57;;
22557;SDS011;11445;53.816;8.902;2023-02-04T09:35:45;6.97;;;4.55;;
22557;SDS011;11445;53.816;8.902;2023-02-04T09:38:12;6.75;;;4.45;;
22557;SDS011;11445;53.816;8.902;2023-02-04T09:40:40;7.65;;;4.57;;
22557;SDS011;11445;53.816;8.902;2023-02-04T09:43:10;8.30;;;4.72;;
22557;SDS011;11445;53.816;8.902;2023-02-04T09:45:40;6.35;;;4.50;;
22557;SDS011;11445;53.816;8.902;2023-02-04T09:48:08;6.70;;;4.82;;
22557;SDS011;11445;53.816;8.902;2023-02-04T09:50:40;6.00;;;4.25;;
22557;SDS011;11445;53.816;8.902;2023-02-04T09:53:09;7.50;;;4.90;;
22557;SDS011;11445;53.816;8.902;2023-02-04T09:55:40;5.70;;;4.35;;
22557;SDS011;11445;53.816;8.902;2023-02-04T09:58:10;6.63;;;4.57;;
22557;SDS011;11445;53.816;8.902;2023-02-04T10:00:40;7.38;;;4.80;;
22557;SDS011;11445;53.816;8.902;2023-02-04T10:03:10;7.38;;;4.97;;
22557;SDS011;11445;53.816;8.902;2023-02-04T10:08:10;13.40;;;4.88;;
22557;SDS011;11445;53.816;8.902;2023-02-04T10:10:39;9.88;;;4.63;;
22557;SDS011;11445;53.816;8.902;2023-02-04T10:13:07;4.35;;;3.28;;
22557;SDS011;11445;53.816;8.902;2023-02-04T10:15:39;7.60;;;5.00;;
22557;SDS011;11445;53.816;8.902;2023-02-04T10:18:06;6.63;;;4.45;;
22557;SDS011;11445;53.816;8.902;2023-02-04T10:20:34;6.75;;;4.63;;
22557;SDS011;11445;53.816;8.902;2023-02-04T10:23:04;10.52;;;5.22;;
22557;SDS011;11445;53.816;8.902;2023-02-04T10:25:36;12.95;;;4.72;;
22557;SDS011;11445;53.816;8.902;2023-02-04T10:28:03;6.72;;;4.50;;
22557;SDS011;11445;53.816;8.902;2023-02-04T10:30:30;7.22;;;4.10;;
22557;SDS011;11445;53.816;8.902;2023-02-04T10:33:14;9.38;;;4.70;;
22557;SDS011;11445;53.816;8.902;2023-02-04T10:35:49;7.05;;;3.63;;
22557;SDS011;11445;53.816;8.902;2023-02-04T10:38:19;4.88;;;4.10;;
22557;SDS011;11445;53.816;8.902;2023-02-04T10:40:47;8.60;;;4.00;;
22557;SDS011;11445;53.816;8.902;2023-02-04T10:43:25;5.88;;;3.83;;
22557;SDS011;11445;53.816;8.902;2023-02-04T10:45:54;6.20;;;3.85;;
22557;SDS011;11445;53.816;8.902;2023-02-04T10:48:22;6.18;;;4.00;;
22557;SDS011;11445;53.816;8.902;2023-02-04T10:50:50;8.77;;;4.15;;
22557;SDS011;11445;53.816;8.902;2023-02-04T10:53:18;5.75;;;3.95;;
22557;SDS011;11445;53.816;8.902;2023-02-04T10:56:05;5.93;;;3.25;;
22557;SDS011;11445;53.816;8.902;2023-02-04T10:58:39;8.18;;;3.50;;
22557;SDS011;11445;53.816;8.902;2023-02-04T11:01:08;5.40;;;3.40;;
22557;SDS011;11445;53.816;8.902;2023-02-04T11:03:36;5.22;;;3.70;;
22557;SDS011;11445;53.816;8.902;2023-02-04T11:06:07;6.65;;;3.72;;
22557;SDS011;11445;53.816;8.902;2023-02-04T11:08:38;3.70;;;3.03;;
22557;SDS011;11445;53.816;8.902;2023-02-04T11:11:07;5.53;;;3.65;;
22557;SDS011;11445;53.816;8.902;2023-02-04T11:13:40;4.78;;;3.10;;
22557;SDS011;11445;53.816;8.902;2023-02-04T11:16:09;4.22;;;3.00;;
22557;SDS011;11445;53.816;8.902;2023-02-04T11:18:50;7.13;;;3.13;;
22557;SDS011;11445;53.816;8.902;2023-02-04T11:21:22;4.38;;;3.17;;
22557;SDS011;11445;53.816;8.902;2023-02-04T11:24:03;4.43;;;3.55;;
22557;SDS011;11445;53.816;8.902;2023-02-04T11:26:32;6.60;;;2.90;;
22557;SDS011;11445;53.816;8.902;2023-02-04T11:29:07;4.22;;;3.03;;
22557;SDS011;11445;53.816;8.902;2023-02-04T11:31:55;5.25;;;3.72;;
22557;SDS011;11445;53.816;8.902;2023-02-04T11:34:26;8.77;;;3.95;;
22557;SDS011;11445;53.816;8.902;2023-02-04T11:36:56;8.18;;;3.33;;
22557;SDS011;11445;53.816;8.902;2023-02-04T11:39:34;3.35;;;3.05;;
22557;SDS011;11445;53.816;8.902;2023-02-04T11:42:03;4.20;;;3.03;;
22557;SDS011;11445;53.816;8.902;2023-02-04T11:44:31;4.88;;;3.10;;
22557;SDS011;11445;53.816;8.902;2023-02-04T11:47:06;3.65;;;3.10;;
22557;SDS011;11445;53.816;8.902;2023-02-04T11:49:34;5.05;;;3.08;;
22557;SDS011;11445;53.816;8.902;2023-02-04T11:52:03;6.38;;;3.22;;
22557;SDS011;11445;53.816;8.902;2023-02-04T11:54:34;5.40;;;2.88;;
22557;SDS011;11445;53.816;8.902;2023-02-04T11:57:01;3.75;;;2.78;;
22557;SDS011;11445;53.816;8.902;2023-02-04T11:59:29;3.35;;;2.75;;
22557;SDS011;11445;53.816;8.902;2023-02-04T12:02:02;6.07;;;3.35;;
22557;SDS011;11445;53.816;8.902;2023-02-04T12:04:30;9.50;;;4.95;;
22557;SDS011;11445;53.816;8.902;2023-02-04T12:06:58;4.32;;;3.60;;
22557;SDS011;11445;53.816;8.902;2023-02-04T12:09:26;3.90;;;3.30;;
22557;SDS011;11445;53.816;8.902;2023-02-04T12:11:56;9.63;;;4.03;;
22557;SDS011;11445;53.816;8.902;2023-02-04T12:14:28;4.85;;;2.65;;
22557;SDS011;11445;53.816;8.902;2023-02-04T12:16:57;6.18;;;3.67;;
22557;SDS011;11445;53.816;8.902;2023-02-04T12:19:25;4.97;;;3.15;;
22557;SDS011;11445;53.816;8.902;2023-02-04T12:21:52;5.25;;;2.83;;
22557;SDS011;11445;53.816;8.902;2023-02-04T12:24:20;7.25;;;3.72;;
22557;SDS011;11445;53.816;8.902;2023-02-04T12:26:47;6.13;;;3.50;;
22557;SDS011;11445;53.816;8.902;2023-02-04T12:29:15;3.28;;;2.97;;
22557;SDS011;11445;53.816;8.902;2023-02-04T12:31:42;4.57;;;2.88;;
22557;SDS011;11445;53.816;8.902;2023-02-04T12:34:09;5.35;;;2.85;;
22557;SDS011;11445;53.816;8.902;2023-02-04T12:36:36;5.35;;;3.28;;
22557;SDS011;11445;53.816;8.902;2023-02-04T12:39:03;6.85;;;3.65;;
22557;SDS011;11445;53.816;8.902;2023-02-04T12:41:30;5.78;;;3.67;;
22557;SDS011;11445;53.816;8.902;2023-02-04T12:43:57;7.82;;;3.35;;
22557;SDS011;11445;53.816;8.902;2023-02-04T12:46:26;6.07;;;3.25;;
22557;SDS011;11445;53.816;8.902;2023-02-04T12:48:53;3.38;;;3.03;;
22557;SDS011;11445;53.816;8.902;2023-02-04T12:51:21;4.32;;;3.20;;
22557;SDS011;11445;53.816;8.902;2023-02-04T12:53:48;7.93;;;3.35;;
22557;SDS011;11445;53.816;8.902;2023-02-04T12:56:15;4.25;;;3.35;;
22557;SDS011;11445;53.816;8.902;2023-02-04T12:58:44;9.02;;;4.25;;
22557;SDS011;11445;53.816;8.902;2023-02-04T13:01:11;8.40;;;5.00;;
22557;SDS011;11445;53.816;8.902;2023-02-04T13:03:40;7.25;;;3.42;;
22557;SDS011;11445;53.816;8.902;2023-02-04T13:06:07;5.20;;;3.72;;
22557;SDS011;11445;53.816;8.902;2023-02-04T13:08:34;7.07;;;3.67;;
22557;SDS011;11445;53.816;8.902;2023-02-04T13:11:01;7.82;;;3.53;;
22557;SDS011;11445;53.816;8.902;2023-02-04T13:13:28;5.65;;;3.38;;
22557;SDS011;11445;53.816;8.902;2023-02-04T13:15:55;6.28;;;4.40;;
22557;SDS011;11445;53.816;8.902;2023-02-04T13:18:22;4.97;;;3.45;;
22557;SDS011;11445;53.816;8.902;2023-02-04T13:20:50;5.35;;;3.53;;
22557;SDS011;11445;53.816;8.902;2023-02-04T13:23:17;4.15;;;3.28;;
22557;SDS011;11445;53.816;8.902;2023-02-04T13:25:44;5.13;;;2.85;;
22557;SDS011;11445;53.816;8.902;2023-02-04T13:28:11;5.40;;;3.13;;
22557;SDS011;11445;53.816;8.902;2023-02-04T13:30:38;4.90;;;3.00;;
22557;SDS011;11445;53.816;8.902;2023-02-04T13:33:05;4.13;;;3.10;;
22557;SDS011;11445;53.816;8.902;2023-02-04T13:35:32;5.90;;;3.42;;
22557;SDS011;11445;53.816;8.902;2023-02-04T13:38:01;4.47;;;3.15;;
22557;SDS011;11445;53.816;8.902;2023-02-04T13:40:28;5.82;;;3.13;;
22557;SDS011;11445;53.816;8.902;2023-02-04T13:42:55;8.90;;;3.08;;
22557;SDS011;11445;53.816;8.902;2023-02-04T13:45:22;8.00;;;3.42;;
22557;SDS011;11445;53.816;8.902;2023-02-04T13:47:49;5.35;;;3.10;;
22557;SDS011;11445;53.816;8.902;2023-02-04T13:50:16;9.15;;;3.17;;
22557;SDS011;11445;53.816;8.902;2023-02-04T13:52:43;3.15;;;2.80;;
22557;SDS011;11445;53.816;8.902;2023-02-04T13:55:11;4.18;;;2.67;;
22557;SDS011;11445;53.816;8.902;2023-02-04T13:57:38;4.47;;;2.75;;
22557;SDS011;11445;53.816;8.902;2023-02-04T14:00:06;2.92;;;2.50;;
22557;SDS011;11445;53.816;8.902;2023-02-04T14:02:34;2.88;;;2.38;;
22557;SDS011;11445;53.816;8.902;2023-02-04T14:05:01;2.88;;;2.65;;
22557;SDS011;11445;53.816;8.902;2023-02-04T14:07:28;4.10;;;2.47;;
22557;SDS011;11445;53.816;8.902;2023-02-04T14:09:57;3.22;;;2.63;;
22557;SDS011;11445;53.816;8.902;2023-02-04T14:12:25;4.55;;;2.40;;
22557;SDS011;11445;53.816;8.902;2023-02-04T14:14:52;3.22;;;2.70;;
22557;SDS011;11445;53.816;8.902;2023-02-04T14:17:19;3.63;;;2.63;;
22557;SDS011;11445;53.816;8.902;2023-02-04T14:19:46;2.97;;;2.42;;
22557;SDS011;11445;53.816;8.902;2023-02-04T14:22:13;4.78;;;2.97;;
22557;SDS011;11445;53.816;8.902;2023-02-04T14:24:40;3.97;;;3.00;;
22557;SDS011;11445;53.816;8.902;2023-02-04T14:27:08;7.85;;;3.08;;
22557;SDS011;11445;53.816;8.902;2023-02-04T14:29:37;5.68;;;3.45;;
22557;SDS011;11445;53.816;8.902;2023-02-04T14:32:04;8.88;;;3.70;;
22557;SDS011;11445;53.816;8.902;2023-02-04T14:34:31;6.75;;;3.00;;
22557;SDS011;11445;53.816;8.902;2023-02-04T14:36:58;2.72;;;2.15;;
22557;SDS011;11445;53.816;8.902;2023-02-04T14:39:25;2.58;;;2.35;;
22557;SDS011;11445;53.816;8.902;2023-02-04T14:41:52;3.85;;;2.95;;
22557;SDS011;11445;53.816;8.902;2023-02-04T14:44:19;4.55;;;2.97;;
22557;SDS011;11445;53.816;8.902;2023-02-04T14:46:47;6.22;;;3.22;;
22557;SDS011;11445;53.816;8.902;2023-02-04T14:49:14;5.95;;;2.53;;
22557;SDS011;11445;53.816;8.902;2023-02-04T14:51:42;5.28;;;3.15;;
22557;SDS011;11445;53.816;8.902;2023-02-04T14:54:09;4.97;;;3.22;;
22557;SDS011;11445;53.816;8.902;2023-02-04T14:56:36;5.80;;;3.45;;